Time;durP1;ratioP1;P1;durP2;ratioP2;P2;SDS_P1;SDS_P2;PMS_P1;PMS_P2;Temp;Humidity;BMP_temperature;BMP_pressure;BME280_temperature;BME280_humidity;BME280_pressure;Samples;Min_cycle;Max_cycle;Signal;HPM_P1;HPM_P2
2022/04/11 00:02:01;;;;;;;;;;;;;;;;;;5096206;28;19934;-72
2022/04/11 00:04:28;;;;;;;;;;;;;;;;;;5095963;28;20375;-71
2022/04/11 00:06:54;;;;;;;;;;;;;;;;;;5095721;28;19931;-71
2022/04/11 00:09:20;;;;;;;;;;;;;;;;;;5096101;28;20360;-71
2022/04/11 00:11:46;;;;;;;;;;;;;;;;;;5096291;28;19908;-71
2022/04/11 00:14:12;;;;;;;;;;;;;;;;;;5077417;28;19909;-71
2022/04/11 00:16:38;;;;;;;;;;;;;;;;;;5096365;28;19923;-71
2022/04/11 00:19:04;;;;;;;;;;;;;;;;;;5095909;28;19912;-71
2022/04/11 00:21:30;;;;;;;;;;;;;;;;;;5077250;28;20375;-71
2022/04/11 00:23:56;;;;;;;;;;;;;;;;;;5095888;28;19908;-70
2022/04/11 00:26:22;;;;;;;;;;;;;;;;;;5095643;28;19916;-70
2022/04/11 00:28:48;;;;;;;;;;;;;;;;;;5095279;28;19935;-69
2022/04/11 00:31:14;;;;;;;;;;;;;;;;;;5095649;28;20003;-74
2022/04/11 00:33:40;;;;;;;;;;;;;;;;;;5095665;28;20395;-70
2022/04/11 00:36:06;;;;;;;;;;;;;;;;;;5095170;28;19908;-70
2022/04/11 00:38:32;;;;;;;;;;;;;;;;;;5095462;28;19913;-71
2022/04/11 00:40:58;;;;;;;;;;;;;;;;;;5076914;28;19957;-71
2022/04/11 00:43:24;;;;;;;;;;;;;;;;;;5095396;28;19908;-71
2022/04/11 00:45:50;;;;;;;;;;;;;;;;;;5095570;28;19916;-71
2022/04/11 00:48:16;;;;;;;;;;;;;;;;;;5094902;28;19969;-71
2022/04/11 00:50:42;;;;;;;;;;;;;;;;;;5095261;28;19951;-71
2022/04/11 00:53:08;;;;;;;;;;;;;;;;;;5095196;28;19908;-71
2022/04/11 00:55:34;;;;;;;;;;;;;;;;;;5095261;28;19912;-71
2022/04/11 00:58:00;;;;;;;;;;;;;;;;;;5095406;28;19908;-71
2022/04/11 01:00:26;;;;;;;;;;;;;;;;;;5095176;28;19951;-71
2022/04/11 01:02:52;;;;;;;;;;;;;;;;;;5094551;28;19978;-71
2022/04/11 01:05:18;;;;;;;;;;;;;;;;;;5095005;28;20295;-71
2022/04/11 01:07:44;;;;;;;;;;;;;;;;;;5076753;28;19908;-71
2022/04/11 01:10:10;;;;;;;;;;;;;;;;;;5075663;28;19915;-71
2022/04/11 01:12:36;;;;;;;;;;;;;;;;;;5094926;28;20272;-71
2022/04/11 01:15:02;;;;;;;;;;;;;;;;;;5094885;28;19912;-71
2022/04/11 01:17:28;;;;;;;;;;;;;;;;;;5094418;28;19915;-71
2022/04/11 01:19:54;;;;;;;;;;;;;;;;;;5095181;28;19962;-71
2022/04/11 01:22:20;;;;;;;;;;;;;;;;;;5094970;28;19962;-71
2022/04/11 01:24:46;;;;;;;;;;;;;;;;;;5094203;28;20228;-71
2022/04/11 01:27:12;;;;;;;;;;;;;;;;;;5094629;28;19923;-70
2022/04/11 01:29:38;;;;;;;;;;;;;;;;;;5094655;28;20264;-71
2022/04/11 01:32:04;;;;;;;;;;;;;;;;;;5094083;28;19908;-71
2022/04/11 01:34:30;;;;;;;;;;;;;;;;;;5094765;28;20316;-71
2022/04/11 01:36:57;;;;;;;;;;;;;;;;;;5095004;28;19908;-71
2022/04/11 01:39:24;;;;;;;;;;;;;;;;;;5075814;28;19915;-71
2022/04/11 01:41:50;;;;;;;;;;;;;;;;;;5094364;28;19908;-71
2022/04/11 01:44:16;;;;;;;;;;;;;;;;;;5075818;28;19908;-71
2022/04/11 01:46:43;;;;;;;;;;;;;;;;;;5076023;28;19924;-71
2022/04/11 01:49:09;;;;;;;;;;;;;;;;;;5094551;28;19915;-71
2022/04/11 01:51:35;;;;;;;;;;;;;;;;;;5075665;28;19909;-71
2022/04/11 01:54:01;;;;;;;;;;;;;;;;;;5076049;28;20368;-71
2022/04/11 01:56:27;;;;;;;;;;;;;;;;;;5076203;28;19992;-71
2022/04/11 01:58:53;;;;;;;;;;;;;;;;;;5094332;28;19923;-72
2022/04/11 02:01:19;;;;;;;;;;;;;;;;;;5094370;28;19908;-71
2022/04/11 02:03:45;;;;;;;;;;;;;;;;;;5075857;28;19915;-68
2022/04/11 02:06:11;;;;;;;;;;;;;;;;;;5093656;28;19924;-71
2022/04/11 02:08:37;;;;;;;;;;;;;;;;;;5075987;28;20288;-71
2022/04/11 02:11:03;;;;;;;;;;;;;;;;;;5094052;28;19954;-71
2022/04/11 02:13:30;;;;;;;;;;;;;;;;;;5093563;28;19908;-71
2022/04/11 02:15:56;;;;;;;;;;;;;;;;;;5075922;28;19908;-71
2022/04/11 02:18:21;;;;;;;;;;;;;;;;;;5094094;28;20433;-71
2022/04/11 02:20:47;;;;;;;;;;;;;;;;;;5094007;28;19908;-71
2022/04/11 02:23:13;;;;;;;;;;;;;;;;;;5079960;28;19915;-71
2022/04/11 02:25:40;;;;;;;;;;;;;;;;;;5098518;28;19920;-70
2022/04/11 02:28:06;;;;;;;;;;;;;;;;;;5097824;28;19916;-71
2022/04/11 02:30:32;;;;;;;;;;;;;;;;;;5079812;28;19912;-70
2022/04/11 02:32:58;;;;;;;;;;;;;;;;;;5098025;28;19912;-71
2022/04/11 02:35:24;;;;;;;;;;;;;;;;;;5097514;28;19908;-71
2022/04/11 02:37:50;;;;;;;;;;;;;;;;;;5097852;28;20273;-71
2022/04/11 02:40:16;;;;;;;;;;;;;;;;;;5097969;28;19908;-71
2022/04/11 02:42:42;;;;;;;;;;;;;;;;;;5097363;28;19958;-71
2022/04/11 02:45:08;;;;;;;;;;;;;;;;;;5097725;28;19920;-71
2022/04/11 02:47:34;;;;;;;;;;;;;;;;;;5097367;28;19915;-71
2022/04/11 02:50:00;;;;;;;;;;;;;;;;;;5097660;28;20411;-70
2022/04/11 02:52:28;;;;;;;;;;;;;;;;;;5098221;28;19950;-71
2022/04/11 02:54:55;;;;;;;;;;;;;;;;;;5097133;28;19908;-72
2022/04/11 02:57:22;;;;;;;;;;;;;;;;;;5079210;28;20006;-71
2022/04/11 02:59:48;;;;;;;;;;;;;;;;;;5097885;28;20311;-71
2022/04/11 03:02:14;;;;;;;;;;;;;;;;;;5078737;28;19908;-71
2022/04/11 03:04:40;;;;;;;;;;;;;;;;;;5097083;28;19977;-71
2022/04/11 03:07:06;;;;;;;;;;;;;;;;;;5097349;28;19919;-71
2022/04/11 03:09:32;;;;;;;;;;;;;;;;;;5096819;28;19912;-71
2022/04/11 03:11:58;;;;;;;;;;;;;;;;;;5097171;28;19912;-71
2022/04/11 03:14:24;;;;;;;;;;;;;;;;;;5079025;28;19962;-71
2022/04/11 03:16:50;;;;;;;;;;;;;;;;;;5096700;28;19908;-71
2022/04/11 03:19:16;;;;;;;;;;;;;;;;;;5097651;28;19966;-71
2022/04/11 03:21:42;;;;;;;;;;;;;;;;;;5097003;28;19912;-71
2022/04/11 03:24:08;;;;;;;;;;;;;;;;;;5096797;28;19908;-71
2022/04/11 03:26:34;;;;;;;;;;;;;;;;;;5096884;28;20331;-71
2022/04/11 03:29:00;;;;;;;;;;;;;;;;;;5078685;28;19912;-71
2022/04/11 03:31:26;;;;;;;;;;;;;;;;;;5096668;28;19908;-71
2022/04/11 03:33:52;;;;;;;;;;;;;;;;;;5096053;28;19913;-71
2022/04/11 03:36:18;;;;;;;;;;;;;;;;;;5096695;28;19908;-71
2022/04/11 03:38:44;;;;;;;;;;;;;;;;;;5096270;28;19908;-71
2022/04/11 03:41:10;;;;;;;;;;;;;;;;;;5096814;28;19915;-71
2022/04/11 03:43:36;;;;;;;;;;;;;;;;;;5078377;28;19908;-71
2022/04/11 03:46:02;;;;;;;;;;;;;;;;;;5077953;28;19927;-71
2022/04/11 03:48:28;;;;;;;;;;;;;;;;;;5096547;28;19908;-71
2022/04/11 03:50:54;;;;;;;;;;;;;;;;;;5096310;28;20364;-72
2022/04/11 03:53:20;;;;;;;;;;;;;;;;;;5096753;28;19909;-71
2022/04/11 03:55:46;;;;;;;;;;;;;;;;;;5096859;28;19908;-71
2022/04/11 03:58:12;;;;;;;;;;;;;;;;;;5095876;28;19912;-71
2022/04/11 04:00:38;;;;;;;;;;;;;;;;;;5078051;28;19908;-71
2022/04/11 04:03:04;;;;;;;;;;;;;;;;;;5096460;28;19908;-71
2022/04/11 04:05:30;;;;;;;;;;;;;;;;;;5095438;28;19920;-71
2022/04/11 04:07:56;;;;;;;;;;;;;;;;;;5096559;28;19915;-71
2022/04/11 04:10:26;;;;;;;;;;;;;;;;;;5096587;28;20253;-70
2022/04/11 04:12:52;;;;;;;;;;;;;;;;;;5095574;28;20257;-73
2022/04/11 04:15:18;;;;;;;;;;;;;;;;;;5096236;28;19915;-71
2022/04/11 04:17:44;;;;;;;;;;;;;;;;;;5095949;28;19908;-72
2022/04/11 04:20:10;;;;;;;;;;;;;;;;;;5095374;28;19915;-74
2022/04/11 04:22:36;;;;;;;;;;;;;;;;;;5096008;28;20386;-74
2022/04/11 04:25:02;;;;;;;;;;;;;;;;;;5095648;28;20376;-74
2022/04/11 04:27:28;;;;;;;;;;;;;;;;;;5095373;28;19908;-74
2022/04/11 04:29:54;;;;;;;;;;;;;;;;;;5095618;28;19912;-74
2022/04/11 04:32:22;;;;;;;;;;;;;;;;;;5077537;28;19916;-74
2022/04/11 04:34:48;;;;;;;;;;;;;;;;;;5095203;28;19908;-74
2022/04/11 04:37:14;;;;;;;;;;;;;;;;;;5095518;28;19908;-75
2022/04/11 04:39:40;;;;;;;;;;;;;;;;;;5095489;28;19914;-74
2022/04/11 04:42:06;;;;;;;;;;;;;;;;;;5094966;28;19947;-75
2022/04/11 04:44:32;;;;;;;;;;;;;;;;;;5076186;28;19908;-75
2022/04/11 04:46:58;;;;;;;;;;;;;;;;;;5077406;28;19912;-74
2022/04/11 04:49:24;;;;;;;;;;;;;;;;;;5095191;28;20000;-75
2022/04/11 04:51:50;;;;;;;;;;;;;;;;;;5095239;28;19908;-75
2022/04/11 04:54:16;;;;;;;;;;;;;;;;;;5088644;28;20284;-75
2022/04/11 04:56:43;;;;;;;;;;;;;;;;;;5091376;28;19951;-73
2022/04/11 04:59:09;;;;;;;;;;;;;;;;;;5083205;28;19920;-74
2022/04/11 05:01:35;;;;;;;;;;;;;;;;;;5093413;28;20276;-74
2022/04/11 05:04:01;;;;;;;;;;;;;;;;;;5075029;28;19912;-74
2022/04/11 05:06:28;;;;;;;;;;;;;;;;;;5072440;28;19923;-74
2022/04/11 05:08:54;;;;;;;;;;;;;;;;;;5088582;28;20002;-75
2022/04/11 05:11:20;;;;;;;;;;;;;;;;;;5075326;28;20023;-74
2022/04/11 05:13:46;;;;;;;;;;;;;;;;;;5075089;28;20451;-71
2022/04/11 05:16:12;;;;;;;;;;;;;;;;;;5093677;28;19977;-77
2022/04/11 05:18:38;;;;;;;;;;;;;;;;;;5092396;28;19912;-71
2022/04/11 05:21:04;;;;;;;;;;;;;;;;;;5092719;28;19908;-72
2022/04/11 05:23:30;;;;;;;;;;;;;;;;;;5091710;28;20006;-71
2022/04/11 05:25:56;;;;;;;;;;;;;;;;;;5093436;28;20010;-72
2022/04/11 05:28:23;;;;;;;;;;;;;;;;;;5093620;28;19915;-70
2022/04/11 05:30:49;;;;;;;;;;;;;;;;;;5091709;28;19912;-73
2022/04/11 05:33:15;;;;;;;;;;;;;;;;;;5093139;28;19912;-71
2022/04/11 05:35:41;;;;;;;;;;;;;;;;;;5094020;28;19912;-72
2022/04/11 05:38:07;;;;;;;;;;;;;;;;;;5071757;28;19912;-71
2022/04/11 05:40:33;;;;;;;;;;;;;;;;;;5092942;28;20337;-75
2022/04/11 05:42:59;;;;;;;;;;;;;;;;;;5092655;28;19956;-73
2022/04/11 05:45:25;;;;;;;;;;;;;;;;;;5074698;28;20379;-74
2022/04/11 05:47:51;;;;;;;;;;;;;;;;;;5091601;28;19909;-73
2022/04/11 05:50:17;;;;;;;;;;;;;;;;;;5091404;28;20080;-74
2022/04/11 05:52:44;;;;;;;;;;;;;;;;;;5091336;28;20055;-73
2022/04/11 05:55:10;;;;;;;;;;;;;;;;;;5091631;28;19978;-73
2022/04/11 05:57:36;;;;;;;;;;;;;;;;;;5090656;28;19912;-73
2022/04/11 06:00:02;;;;;;;;;;;;;;;;;;5091311;28;19908;-72
2022/04/11 06:02:28;;;;;;;;;;;;;;;;;;5075276;28;19957;-72
2022/04/11 06:04:54;;;;;;;;;;;;;;;;;;5092927;28;19928;-74
2022/04/11 06:07:25;;;;;;;;;;;;;;;;;;5092372;28;20208;-71
2022/04/11 06:09:51;;;;;;;;;;;;;;;;;;5092865;28;20199;-72
2022/04/11 06:12:17;;;;;;;;;;;;;;;;;;5092555;28;19912;-70
2022/04/11 06:14:43;;;;;;;;;;;;;;;;;;5069353;28;19912;-75
2022/04/11 06:17:09;;;;;;;;;;;;;;;;;;5073658;28;19951;-72
2022/04/11 06:19:35;;;;;;;;;;;;;;;;;;5093080;28;19915;-74
2022/04/11 06:22:01;;;;;;;;;;;;;;;;;;5075103;28;20330;-73
2022/04/11 06:24:27;;;;;;;;;;;;;;;;;;5093234;28;19908;-73
2022/04/11 06:26:53;;;;;;;;;;;;;;;;;;5091926;28;20018;-72
2022/04/11 06:29:19;;;;;;;;;;;;;;;;;;5093495;28;20303;-74
2022/04/11 06:31:45;;;;;;;;;;;;;;;;;;5093182;28;19908;-74
2022/04/11 06:34:11;;;;;;;;;;;;;;;;;;5074061;28;20047;-74
2022/04/11 06:36:37;;;;;;;;;;;;;;;;;;5092555;28;19915;-71
2022/04/11 06:39:03;;;;;;;;;;;;;;;;;;5092573;28;19908;-73
2022/04/11 06:41:29;;;;;;;;;;;;;;;;;;5092381;28;19908;-72
2022/04/11 06:43:55;;;;;;;;;;;;;;;;;;5092941;28;20264;-71
2022/04/11 06:46:21;;;;;;;;;;;;;;;;;;5092961;28;19916;-71
2022/04/11 06:48:47;;;;;;;;;;;;;;;;;;5092342;28;19928;-72
2022/04/11 06:51:13;;;;;;;;;;;;;;;;;;5092677;28;19908;-71
2022/04/11 06:53:39;;;;;;;;;;;;;;;;;;5069800;28;19908;-73
2022/04/11 06:56:05;;;;;;;;;;;;;;;;;;5090720;28;19943;-71
2022/04/11 06:58:31;;;;;;;;;;;;;;;;;;5092460;28;19951;-70
2022/04/11 07:00:57;;;;;;;;;;;;;;;;;;5092698;28;20234;-71
2022/04/11 07:03:23;;;;;;;;;;;;;;;;;;5092871;28;19908;-71
2022/04/11 07:05:50;;;;;;;;;;;;;;;;;;5092341;28;20330;-70
2022/04/11 07:08:16;;;;;;;;;;;;;;;;;;5088831;28;20368;-71
2022/04/11 07:10:44;;;;;;;;;;;;;;;;;;5076148;28;19923;-70
2022/04/11 07:13:10;;;;;;;;;;;;;;;;;;5089918;28;19908;-72
2022/04/11 07:15:37;;;;;;;;;;;;;;;;;;5087243;28;19952;-72
2022/04/11 07:18:04;;;;;;;;;;;;;;;;;;5088160;28;19955;-73
2022/04/11 07:20:30;;;;;;;;;;;;;;;;;;5094155;28;19908;-71
2022/04/11 07:22:56;;;;;;;;;;;;;;;;;;5074135;28;20819;-72
2022/04/11 07:25:24;;;;;;;;;;;;;;;;;;5088621;28;19920;-71
2022/04/11 07:27:50;;;;;;;;;;;;;;;;;;5085309;28;19917;-72
2022/04/11 07:30:17;;;;;;;;;;;;;;;;;;5090918;28;19908;-74
2022/04/11 07:32:43;;;;;;;;;;;;;;;;;;5093756;28;19947;-72
2022/04/11 07:35:09;;;;;;;;;;;;;;;;;;5091847;28;20019;-71
2022/04/11 07:37:35;;;;;;;;;;;;;;;;;;5090006;28;19927;-72
2022/04/11 07:40:02;;;;;;;;;;;;;;;;;;5085259;28;20272;-72
2022/04/11 07:42:28;;;;;;;;;;;;;;;;;;5094329;28;19919;-78
2022/04/11 07:44:54;;;;;;;;;;;;;;;;;;5086071;28;19908;-75
2022/04/11 07:47:20;;;;;;;;;;;;;;;;;;5091909;28;19982;-75
2022/04/11 07:49:47;;;;;;;;;;;;;;;;;;5089215;28;19916;-74
2022/04/11 07:52:13;;;;;;;;;;;;;;;;;;5088295;28;19912;-77
2022/04/11 07:54:39;;;;;;;;;;;;;;;;;;5088911;28;19912;-72
2022/04/11 07:57:07;;;;;;;;;;;;;;;;;;5083524;28;19908;-74
2022/04/11 07:59:34;;;;;;;;;;;;;;;;;;5089372;28;19961;-73
2022/04/11 08:02:00;;;;;;;;;;;;;;;;;;5088579;28;19963;-75
2022/04/11 08:04:26;;;;;;;;;;;;;;;;;;5088554;28;20346;-75
2022/04/11 08:06:52;;;;;;;;;;;;;;;;;;5084998;28;19927;-76
2022/04/11 08:09:19;;;;;;;;;;;;;;;;;;5081872;28;20423;-71
2022/04/11 08:11:44;;;;;;;;;;;;;;;;;;5092705;28;19912;-71
2022/04/11 08:14:10;;;;;;;;;;;;;;;;;;5092807;28;19912;-71
2022/04/11 08:16:36;;;;;;;;;;;;;;;;;;5093749;28;19908;-71
2022/04/11 08:19:03;;;;;;;;;;;;;;;;;;5105097;28;19953;-71
2022/04/11 08:21:29;;;;;;;;;;;;;;;;;;5105578;28;19912;-71
2022/04/11 08:23:55;;;;;;;;;;;;;;;;;;5089323;28;19912;-71
2022/04/11 08:26:21;;;;;;;;;;;;;;;;;;5091992;28;19920;-72
2022/04/11 08:28:47;;;;;;;;;;;;;;;;;;5094586;28;19908;-73
2022/04/11 08:31:13;;;;;;;;;;;;;;;;;;5094416;28;19920;-72
2022/04/11 08:33:39;;;;;;;;;;;;;;;;;;5093063;28;19912;-71
2022/04/11 08:36:05;;;;;;;;;;;;;;;;;;5097035;28;19996;-72
2022/04/11 08:38:31;;;;;;;;;;;;;;;;;;5075515;28;20280;-71
2022/04/11 08:40:57;;;;;;;;;;;;;;;;;;5093122;28;19919;-72
2022/04/11 08:43:23;;;;;;;;;;;;;;;;;;5094880;28;19912;-71
2022/04/11 08:45:50;;;;;;;;;;;;;;;;;;5094100;28;19997;-72
2022/04/11 08:48:15;;;;;;;;;;;;;;;;;;5094224;28;19913;-71
2022/04/11 08:50:41;;;;;;;;;;;;;;;;;;5094766;28;19912;-72
2022/04/11 08:53:07;;;;;;;;;;;;;;;;;;5094846;28;19966;-71
2022/04/11 08:55:34;;;;;;;;;;;;;;;;;;5094311;28;19908;-72
2022/04/11 08:58:00;;;;;;;;;;;;;;;;;;5094336;28;19916;-77
2022/04/11 09:00:27;;;;;;;;;;;;;;;;;;5094338;28;19908;-76
2022/04/11 09:02:53;;;;;;;;;;;;;;;;;;5094927;28;20006;-76
2022/04/11 09:05:19;;;;;;;;;;;;;;;;;;5094559;28;20003;-75
2022/04/11 09:07:45;;;;;;;;;;;;;;;;;;5092908;28;20039;-74
2022/04/11 09:10:12;;;;;;;;;;;;;;;;;;5091882;28;19987;-74
2022/04/11 09:12:38;;;;;;;;;;;;;;;;;;5094682;28;20276;-76
2022/04/11 09:15:45;;;;;;;;;;;;;;;;;;5087253;27;20376;-74
2022/04/11 09:20:45;;;;;;;;;;;;;;;;;;5142680;27;19916;-73
2022/04/11 09:24:00;;;;;;;;;;;;;;;;;;5090930;27;19916;-75
2022/04/11 09:28:52;;;;;;;;;;;;;;;;;;5083426;28;19994;-74
2022/04/11 09:31:18;;;;;;;;;;;;;;;;;;5075658;28;20493;-72
2022/04/11 09:37:43;;;;;;;;;;;;;;;;;;5137466;27;20010;-71
2022/04/11 09:41:44;;;;;;;;;;;;;;;;;;5099819;27;19923;-71
2022/04/11 09:44:10;;;;;;;;;;;;;;;;;;5109915;28;19994;-69
2022/04/11 09:48:21;;;;;;;;;;;;;;;;;;5086606;27;19927;-70
2022/04/11 09:50:50;;;;;;;;;;;;;;;;;;5086980;28;19912;-68
2022/04/11 09:53:16;;;;;;;;;;;;;;;;;;5088303;28;20280;-72
2022/04/11 09:57:33;;;;;;;;;;;;;;;;;;5086988;27;20388;-72
2022/04/11 10:00:00;;;;;;;;;;;;;;;;;;5090253;28;20372;-71
2022/04/11 10:02:26;;;;;;;;;;;;;;;;;;5090416;28;19954;-69
2022/04/11 10:04:53;;;;;;;;;;;;;;;;;;5090261;28;19912;-70
2022/04/11 10:07:19;;;;;;;;;;;;;;;;;;5090264;28;20333;-69
2022/04/11 10:09:45;;;;;;;;;;;;;;;;;;5090640;28;19916;-70
2022/04/11 10:12:11;;;;;;;;;;;;;;;;;;5089690;28;19908;-70
2022/04/11 10:15:18;;;;;;;;;;;;;;;;;;5090389;28;19950;-71
2022/04/11 10:17:44;;;;;;;;;;;;;;;;;;5087933;28;19966;-71
2022/04/11 10:21:52;;;;;;;;;;;;;;;;;;5088532;27;20409;-71
2022/04/11 10:28:10;;;;;;;;;;;;;;;;;;5120443;27;19922;-71
2022/04/11 10:30:36;;;;;;;;;;;;;;;;;;5128472;28;19934;-71
2022/04/11 10:33:03;;;;;;;;;;;;;;;;;;5129107;28;19911;-71
2022/04/11 10:35:29;;;;;;;;;;;;;;;;;;5117562;28;20271;-73
2022/04/11 10:39:31;;;;;;;;;;;;;;;;;;5173022;27;19922;-71
2022/04/11 10:47:41;;;;;;;;;;;;;;;;;;5134636;27;20314;-71
2022/04/11 10:50:45;;;;;;;;;;;;;;;;;;5109295;27;19916;-72
2022/04/11 10:53:11;;;;;;;;;;;;;;;;;;5099616;28;19916;-73
2022/04/11 10:55:37;;;;;;;;;;;;;;;;;;5108032;28;20006;-76
2022/04/11 10:58:03;;;;;;;;;;;;;;;;;;5109461;28;20418;-75
2022/04/11 11:07:19;;;;;;;;;;;;;;;;;;5089046;28;19923;-72
2022/04/11 11:09:47;;;;;;;;;;;;;;;;;;5088127;28;20535;-77
2022/04/11 11:12:13;;;;;;;;;;;;;;;;;;5088245;28;19915;-74
2022/04/11 11:14:40;;;;;;;;;;;;;;;;;;5089737;28;19909;-74
2022/04/11 11:24:14;;;;;;;;;;;;;;;;;;5152613;27;20389;-75
2022/04/11 11:26:41;;;;;;;;;;;;;;;;;;5152782;27;20443;-74
2022/04/11 11:29:07;;;;;;;;;;;;;;;;;;5152133;27;19908;-73
2022/04/11 11:31:33;;;;;;;;;;;;;;;;;;5152513;27;19995;-74
2022/04/11 11:33:59;;;;;;;;;;;;;;;;;;5152272;27;19998;-73
2022/04/11 11:36:25;;;;;;;;;;;;;;;;;;5151934;27;19986;-71
2022/04/11 11:39:31;;;;;;;;;;;;;;;;;;5132026;27;19911;-72
2022/04/11 11:42:47;;;;;;;;;;;;;;;;;;5152558;27;19917;-73
2022/04/11 11:46:49;;;;;;;;;;;;;;;;;;5111296;27;19963;-71
2022/04/11 11:51:53;;;;;;;;;;;;;;;;;;5152658;27;20385;-73
2022/04/11 11:54:19;;;;;;;;;;;;;;;;;;5152418;27;20003;-71
2022/04/11 11:58:03;;;;;;;;;;;;;;;;;;5090541;28;20324;-74
2022/04/11 12:00:29;;;;;;;;;;;;;;;;;;5090898;28;19920;-72
2022/04/11 12:05:40;;;;;;;;;;;;;;;;;;5090953;28;19934;-72
2022/04/11 12:08:56;;;;;;;;;;;;;;;;;;5091239;27;19923;-72
2022/04/11 12:11:22;;;;;;;;;;;;;;;;;;5090881;28;19913;-72
2022/04/11 12:13:48;;;;;;;;;;;;;;;;;;5090982;28;19977;-70
2022/04/11 12:16:19;;;;;;;;;;;;;;;;;;5090953;28;20367;-73
2022/04/11 12:18:45;;;;;;;;;;;;;;;;;;5090659;28;19920;-73
2022/04/11 12:21:11;;;;;;;;;;;;;;;;;;5090973;28;19908;-72
2022/04/11 12:23:37;;;;;;;;;;;;;;;;;;5089508;28;19915;-73
2022/04/11 12:26:03;;;;;;;;;;;;;;;;;;5087708;28;19908;-72
2022/04/11 12:28:49;;;;;;;;;;;;;;;;;;5111803;27;19916;-73
2022/04/11 12:31:18;;;;;;;;;;;;;;;;;;5110698;28;19955;-73
2022/04/11 12:35:16;;;;;;;;;;;;;;;;;;5070972;28;19919;-73
2022/04/11 12:37:42;;;;;;;;;;;;;;;;;;5070652;28;19961;-75
2022/04/11 12:40:08;;;;;;;;;;;;;;;;;;5070638;28;20380;-74
2022/04/11 12:42:36;;;;;;;;;;;;;;;;;;5070868;28;19912;-73
2022/04/11 12:45:02;;;;;;;;;;;;;;;;;;5070899;28;19917;-72
2022/04/11 12:47:28;;;;;;;;;;;;;;;;;;5070057;28;19908;-72
2022/04/11 12:50:20;;;;;;;;;;;;;;;;;;5091169;27;20285;-71
2022/04/11 12:52:46;;;;;;;;;;;;;;;;;;5090747;28;20384;-73
2022/04/11 12:55:12;;;;;;;;;;;;;;;;;;5091208;28;19915;-72
2022/04/11 12:57:38;;;;;;;;;;;;;;;;;;5091268;28;19987;-71
2022/04/11 13:00:04;;;;;;;;;;;;;;;;;;5090869;28;19909;-71
2022/04/11 13:02:30;;;;;;;;;;;;;;;;;;5091110;28;19916;-71
2022/04/11 13:04:56;;;;;;;;;;;;;;;;;;5091245;28;20376;-72
2022/04/11 13:07:22;;;;;;;;;;;;;;;;;;5090573;28;20284;-72
2022/04/11 13:09:48;;;;;;;;;;;;;;;;;;5090935;28;19924;-71
2022/04/11 13:12:14;;;;;;;;;;;;;;;;;;5091039;28;19909;-71
2022/04/11 13:14:40;;;;;;;;;;;;;;;;;;5089115;28;20007;-72
2022/04/11 13:19:01;;;;;;;;;;;;;;;;;;5091990;27;19916;-70
2022/04/11 13:21:27;;;;;;;;;;;;;;;;;;5091016;28;19952;-70
2022/04/11 13:23:53;;;;;;;;;;;;;;;;;;5090119;28;20364;-71
2022/04/11 13:26:51;;;;;;;;;;;;;;;;;;5092199;27;19916;-70
2022/04/11 13:29:18;;;;;;;;;;;;;;;;;;5090919;28;20016;-69
2022/04/11 13:31:44;;;;;;;;;;;;;;;;;;5091402;28;19913;-70
2022/04/11 13:35:38;;;;;;;;;;;;;;;;;;5091294;27;19916;-71
2022/04/11 13:38:04;;;;;;;;;;;;;;;;;;5091308;28;20003;-71
2022/04/11 13:40:30;;;;;;;;;;;;;;;;;;5091604;28;19939;-71
2022/04/11 13:42:58;;;;;;;;;;;;;;;;;;5091023;28;20365;-70
2022/04/11 13:47:27;;;;;;;;;;;;;;;;;;5091410;27;20399;-70
2022/04/11 13:49:53;;;;;;;;;;;;;;;;;;5091212;28;19913;-71
2022/04/11 13:53:34;;;;;;;;;;;;;;;;;;5091423;27;19913;-71
2022/04/11 13:56:00;;;;;;;;;;;;;;;;;;5091079;28;19935;-70
2022/04/11 13:59:43;;;;;;;;;;;;;;;;;;5092181;27;19916;-72
2022/04/11 14:02:09;;;;;;;;;;;;;;;;;;5091388;28;19912;-72
2022/04/11 14:04:35;;;;;;;;;;;;;;;;;;5090986;28;19961;-71
2022/04/11 14:07:01;;;;;;;;;;;;;;;;;;5091188;28;19908;-71
2022/04/11 14:09:27;;;;;;;;;;;;;;;;;;5091220;28;20389;-70
2022/04/11 14:11:53;;;;;;;;;;;;;;;;;;5090803;28;19912;-70
2022/04/11 14:14:19;;;;;;;;;;;;;;;;;;5091073;28;19909;-70
2022/04/11 14:16:45;;;;;;;;;;;;;;;;;;5089348;28;19909;-70
2022/04/11 14:19:53;;;;;;;;;;;;;;;;;;5091682;27;19916;-71
2022/04/11 14:22:19;;;;;;;;;;;;;;;;;;5091302;28;20016;-70
2022/04/11 14:25:48;;;;;;;;;;;;;;;;;;5091170;27;19922;-73
2022/04/11 14:28:45;;;;;;;;;;;;;;;;;;5091865;28;19922;-70
2022/04/11 14:31:11;;;;;;;;;;;;;;;;;;5090970;28;19913;-72
2022/04/11 14:37:21;;;;;;;;;;;;;;;;;;5092049;27;19916;-72
2022/04/11 14:43:54;;;;;;;;;;;;;;;;;;5091710;27;19917;-71
2022/04/11 14:46:20;;;;;;;;;;;;;;;;;;5090999;28;19912;-70
2022/04/11 14:50:36;;;;;;;;;;;;;;;;;;5071202;28;19916;-72
2022/04/11 14:55:05;;;;;;;;;;;;;;;;;;5092023;27;19922;-72
2022/04/11 14:57:31;;;;;;;;;;;;;;;;;;5091423;28;19912;-72
2022/04/11 15:02:23;;;;;;;;;;;;;;;;;;5111840;27;20273;-72
2022/04/11 15:04:49;;;;;;;;;;;;;;;;;;5112035;28;20292;-71
2022/04/11 15:07:15;;;;;;;;;;;;;;;;;;5111412;28;19908;-71
2022/04/11 15:09:41;;;;;;;;;;;;;;;;;;5111646;28;19912;-71
2022/04/11 15:12:07;;;;;;;;;;;;;;;;;;5111593;28;19908;-71
2022/04/11 15:17:02;;;;;;;;;;;;;;;;;;5091377;27;19918;-71
2022/04/11 15:21:09;;;;;;;;;;;;;;;;;;5091464;27;19923;-71
2022/04/11 15:25:34;;;;;;;;;;;;;;;;;;5071655;28;20385;-72
2022/04/11 15:29:50;;;;;;;;;;;;;;;;;;5132298;27;19916;-69
2022/04/11 15:35:32;;;;;;;;;;;;;;;;;;5111674;27;20299;-70
2022/04/11 15:37:58;;;;;;;;;;;;;;;;;;5112031;28;19912;-70
2022/04/11 15:41:52;;;;;;;;;;;;;;;;;;5091027;27;19923;-72
2022/04/11 15:44:18;;;;;;;;;;;;;;;;;;5091377;28;19958;-71
2022/04/11 15:47:00;;;;;;;;;;;;;;;;;;5091916;27;19917;-70
2022/04/11 15:49:26;;;;;;;;;;;;;;;;;;5091143;28;19955;-70
2022/04/11 15:51:52;;;;;;;;;;;;;;;;;;5091711;28;19909;-71
2022/04/11 15:56:09;;;;;;;;;;;;;;;;;;5091577;28;19916;-71
2022/04/11 16:00:16;;;;;;;;;;;;;;;;;;5072103;28;19923;-72
2022/04/11 16:02:42;;;;;;;;;;;;;;;;;;5070986;28;19917;-72
2022/04/11 16:05:08;;;;;;;;;;;;;;;;;;5071093;28;19954;-73
2022/04/11 16:07:34;;;;;;;;;;;;;;;;;;5071385;28;19970;-71
2022/04/11 16:10:00;;;;;;;;;;;;;;;;;;5071020;28;20008;-71
2022/04/11 16:12:26;;;;;;;;;;;;;;;;;;5071058;28;20392;-72
2022/04/11 16:18:55;;;;;;;;;;;;;;;;;;5112538;27;19916;-70
2022/04/11 16:21:21;;;;;;;;;;;;;;;;;;5112244;28;19919;-71
2022/04/11 16:24:06;;;;;;;;;;;;;;;;;;5091779;27;19916;-72
2022/04/11 16:26:32;;;;;;;;;;;;;;;;;;5090151;28;20283;-71
2022/04/11 16:28:58;;;;;;;;;;;;;;;;;;5091622;28;20393;-71
2022/04/11 16:31:24;;;;;;;;;;;;;;;;;;5091132;28;19908;-71
2022/04/11 16:33:50;;;;;;;;;;;;;;;;;;5091444;28;19908;-71
2022/04/11 16:37:06;;;;;;;;;;;;;;;;;;5092208;28;19922;-73
2022/04/11 16:39:32;;;;;;;;;;;;;;;;;;5090924;28;19957;-72
2022/04/11 16:41:58;;;;;;;;;;;;;;;;;;5091337;28;19909;-72
2022/04/11 16:44:24;;;;;;;;;;;;;;;;;;5091445;28;19908;-70
2022/04/11 16:46:50;;;;;;;;;;;;;;;;;;5090868;28;19946;-72
2022/04/11 16:49:16;;;;;;;;;;;;;;;;;;5091301;28;20363;-72
2022/04/11 16:52:33;;;;;;;;;;;;;;;;;;5091612;27;19917;-72
2022/04/11 16:54:59;;;;;;;;;;;;;;;;;;5091544;28;19956;-72
2022/04/11 16:59:34;;;;;;;;;;;;;;;;;;5091630;27;20304;-72
2022/04/11 17:02:00;;;;;;;;;;;;;;;;;;5091643;28;19913;-72
2022/04/11 17:04:27;;;;;;;;;;;;;;;;;;5091411;28;19915;-72
2022/04/11 17:06:53;;;;;;;;;;;;;;;;;;5090925;28;19908;-72
2022/04/11 17:09:19;;;;;;;;;;;;;;;;;;5091214;28;19936;-71
2022/04/11 17:11:45;;;;;;;;;;;;;;;;;;5091008;28;19950;-70
2022/04/11 17:14:11;;;;;;;;;;;;;;;;;;5090743;28;19934;-71
2022/04/11 17:19:22;;;;;;;;;;;;;;;;;;5090955;28;19942;-71
2022/04/11 17:21:48;;;;;;;;;;;;;;;;;;5090562;28;20265;-70
2022/04/11 17:24:14;;;;;;;;;;;;;;;;;;5090926;28;19912;-70
2022/04/11 17:26:40;;;;;;;;;;;;;;;;;;5090907;28;19915;-71
2022/04/11 17:29:06;;;;;;;;;;;;;;;;;;5090471;28;19960;-70
2022/04/11 17:31:32;;;;;;;;;;;;;;;;;;5090841;28;19912;-71
2022/04/11 17:33:58;;;;;;;;;;;;;;;;;;5090342;28;19909;-71
2022/04/11 17:36:24;;;;;;;;;;;;;;;;;;5090666;28;20328;-72
2022/04/11 17:38:50;;;;;;;;;;;;;;;;;;5090609;28;19970;-70
2022/04/11 17:41:16;;;;;;;;;;;;;;;;;;5090170;28;19995;-69
2022/04/11 17:43:42;;;;;;;;;;;;;;;;;;5090216;28;19910;-69
2022/04/11 17:46:09;;;;;;;;;;;;;;;;;;5090342;28;19916;-70
2022/04/11 17:48:35;;;;;;;;;;;;;;;;;;5090133;28;20360;-69
2022/04/11 17:51:01;;;;;;;;;;;;;;;;;;5090393;28;20008;-70
2022/04/11 17:53:28;;;;;;;;;;;;;;;;;;5090460;28;20003;-68
2022/04/11 17:55:54;;;;;;;;;;;;;;;;;;5089908;28;20315;-69
2022/04/11 17:58:20;;;;;;;;;;;;;;;;;;5100486;28;19920;-69
2022/04/11 18:00:46;;;;;;;;;;;;;;;;;;5110466;28;19974;-70
2022/04/11 18:03:12;;;;;;;;;;;;;;;;;;5110178;28;19911;-69
2022/04/11 18:05:38;;;;;;;;;;;;;;;;;;5110332;28;20394;-69
2022/04/11 18:08:04;;;;;;;;;;;;;;;;;;5110534;28;19908;-70
2022/04/11 18:10:31;;;;;;;;;;;;;;;;;;5098578;28;20395;-70
2022/04/11 18:12:57;;;;;;;;;;;;;;;;;;5078506;28;19916;-71
2022/04/11 18:15:23;;;;;;;;;;;;;;;;;;5096608;28;19911;-70
2022/04/11 18:17:50;;;;;;;;;;;;;;;;;;5096081;28;19912;-70
2022/04/11 18:20:17;;;;;;;;;;;;;;;;;;5096655;28;19954;-71
2022/04/11 18:22:43;;;;;;;;;;;;;;;;;;5096756;28;20276;-70
2022/04/11 18:25:09;;;;;;;;;;;;;;;;;;5096223;28;19908;-70
2022/04/11 18:27:35;;;;;;;;;;;;;;;;;;5078383;28;19908;-69